Etusivu
METAR-TAF:

METAR-TAF

Lentoasemat :

Chișinăun kansainvälinen lentoasema

Chișinău, Moldova

Leveyspiiri: 46-55-40N, Pituuspiiri: 028-55-51E, korkeus merenpinnasta: 122 m

Tämänhetkinen sää

Tämä raportti tehtiin 33 minuuttia sitten, kello 17.00 UTC
Tuuli 7 kn pohjoisen/luoteesta
Lämpötila 18°C
Kosteus 19%
Ilmanpaine 1024 hPa
Näkyvyys 10 km tai enemmän
ei pilviä alle 1500 m:ssä eikä cumulonimbus-pilviä

METAR: LUKK 081700Z 34007KT CAVOK 18/M06 Q1024 R08/D NOSIG

Aika: 20:33 (17:33 UTC)

Sääennuste

Tämä raportti tehtiin 13 minuuttia sitten, kello 17.20 UTC
Ennuste voimassa 08. päivästä klo 18 UTC - 09. päivään klo 18 UTC
Tuuli 4 kn eri suunnista
Näkyvyys 10 km tai enemmän
ei pilviä alle 1500 m:ssä eikä cumulonimbus-pilviä

TAF: LUKK 081720Z 0818/0918 VRB04KT CAVOK

Säähavainnot ja -ennusteet yli 4000 lentoasemalta (METAR- ja TAF-raportit).

Käytössä olevat sääasemat on merkitty karttaan keltaisilla ja punaisilla pisteillä.

Aseta hiiri pisteen päälle nähdäksesi sääaseman nimen.

Klikkaa sitten nähdäksesi säähavainnot ja -ennusteet.

Kartan vaihtaminen: klikkaa mustalla rastilla varustettuja vihreitä pisteitä, niin voit zoomata sisään; viivalla varustettua vihreää pistettä, niin voit zoomata ulos tai vihreitä nuolia, niin pääset viereisille kartoille.


METAR-TAF: